Time;durP1;ratioP1;P1;durP2;ratioP2;P2;SDS_P1;SDS_P2;PMS_P1;PMS_P2;Temp;Humidity;BMP_temperature;BMP_pressure;BME280_temperature;BME280_humidity;BME280_pressure;Samples;Min_cycle;Max_cycle;Signal;HPM_P1;HPM_P2
2021/03/28 00:00:31;;;;;;;8.47;5.50;;;;;;;;;;2048085;29;20302;-59
2021/03/28 00:01:34;;;;;;;15.93;6.30;;;;;;;;;;2047280;28;20206;-62
2021/03/28 00:02:36;;;;;;;11.03;5.87;;;;;;;;;;2048134;28;20837;-58
2021/03/28 00:03:36;;;;;;;13.20;6.03;;;;;;;;;;2046487;28;20655;-61
2021/03/28 00:04:52;;;;;;;14.93;6.37;;;;;;;;;;2055530;28;20228;-60
2021/03/28 00:06:05;;;;;;;11.13;6.27;;;;;;;;;;2046620;28;20198;-59
2021/03/28 00:07:06;;;;;;;15.67;6.23;;;;;;;;;;2048076;28;20187;-56
2021/03/28 00:08:15;;;;;;;15.07;6.10;;;;;;;;;;2051028;28;20694;-60
2021/03/28 00:09:17;;;;;;;14.80;5.53;;;;;;;;;;2053889;28;20692;-61
2021/03/28 00:10:29;;;;;;;12.07;5.53;;;;;;;;;;2055061;28;20171;-59
2021/03/28 00:11:30;;;;;;;13.30;5.90;;;;;;;;;;2055915;28;20192;-60
2021/03/28 00:12:34;;;;;;;11.37;5.80;;;;;;;;;;2057411;28;20174;-62
2021/03/28 00:13:42;;;;;;;13.00;5.63;;;;;;;;;;2055600;28;20217;-63
2021/03/28 00:14:43;;;;;;;12.50;5.33;;;;;;;;;;2056514;28;20329;-61
2021/03/28 00:15:55;;;;;;;12.50;5.50;;;;;;;;;;2056753;28;20198;-61
2021/03/28 00:16:55;;;;;;;9.50;4.90;;;;;;;;;;2056832;28;20186;-61
2021/03/28 00:18:16;;;;;;;11.37;4.97;;;;;;;;;;2051470;28;20561;-61
2021/03/28 00:19:24;;;;;;;14.33;5.27;;;;;;;;;;2056331;28;20182;-60
2021/03/28 00:20:29;;;;;;;13.73;5.20;;;;;;;;;;2055049;28;20177;-61
2021/03/28 00:21:44;;;;;;;13.87;5.87;;;;;;;;;;2051085;28;20191;-62
2021/03/28 00:22:50;;;;;;;13.57;5.50;;;;;;;;;;2049144;29;20276;-61
2021/03/28 00:23:51;;;;;;;14.03;5.17;;;;;;;;;;2046587;28;20201;-61
2021/03/28 00:24:57;;;;;;;8.00;4.90;;;;;;;;;;2048872;29;20270;-61
2021/03/28 00:26:16;;;;;;;12.37;5.07;;;;;;;;;;2041487;29;20216;-60
2021/03/28 00:27:18;;;;;;;10.23;4.97;;;;;;;;;;2043255;29;20246;-62
2021/03/28 00:28:21;;;;;;;14.20;5.80;;;;;;;;;;2048454;29;20197;-63
2021/03/28 00:29:25;;;;;;;9.00;5.00;;;;;;;;;;2056493;28;20189;-62
2021/03/28 00:30:27;;;;;;;11.67;4.87;;;;;;;;;;2056497;28;20178;-61
2021/03/28 00:31:30;;;;;;;9.07;4.63;;;;;;;;;;2055443;28;20186;-62
2021/03/28 00:32:36;;;;;;;10.53;4.60;;;;;;;;;;2056291;28;20189;-62
2021/03/28 00:33:37;;;;;;;13.10;4.83;;;;;;;;;;2057407;28;20174;-62
2021/03/28 00:34:39;;;;;;;11.23;5.00;;;;;;;;;;2058112;28;20182;-63
2021/03/28 00:35:45;;;;;;;7.47;4.90;;;;;;;;;;2057327;28;20181;-60
2021/03/28 00:36:47;;;;;;;14.83;5.17;;;;;;;;;;2057260;28;20206;-62
2021/03/28 00:37:59;;;;;;;7.37;4.77;;;;;;;;;;2048816;28;20171;-60
2021/03/28 00:39:00;;;;;;;9.23;4.80;;;;;;;;;;2046284;28;20182;-63
2021/03/28 00:40:10;;;;;;;9.47;4.40;;;;;;;;;;2052360;28;20647;-61
2021/03/28 00:41:41;;;;;;;10.10;5.17;;;;;;;;;;2047924;28;20190;-61
2021/03/28 00:42:46;;;;;;;9.53;5.00;;;;;;;;;;2050722;28;20189;-63
2021/03/28 00:43:48;;;;;;;7.23;5.40;;;;;;;;;;2055918;28;20182;-62
2021/03/28 00:44:51;;;;;;;8.50;5.07;;;;;;;;;;2056052;28;20186;-61
2021/03/28 00:45:58;;;;;;;12.73;4.77;;;;;;;;;;2054562;28;20174;-60
2021/03/28 00:47:02;;;;;;;10.07;4.90;;;;;;;;;;2056126;28;20162;-61
2021/03/28 00:48:16;;;;;;;12.00;5.17;;;;;;;;;;2054123;28;20186;-60
2021/03/28 00:49:40;;;;;;;6.90;4.93;;;;;;;;;;2039875;29;20193;-62
2021/03/28 00:50:50;;;;;;;10.10;4.73;;;;;;;;;;2021020;28;20199;-61
2021/03/28 00:51:52;;;;;;;12.17;5.03;;;;;;;;;;2049700;28;20199;-59
2021/03/28 00:52:59;;;;;;;11.30;4.97;;;;;;;;;;2046914;28;20190;-60
2021/03/28 00:54:11;;;;;;;8.90;4.80;;;;;;;;;;2039625;29;20207;-59
2021/03/28 00:55:19;;;;;;;6.63;4.93;;;;;;;;;;2036069;29;20175;-61
2021/03/28 00:56:26;;;;;;;8.07;4.77;;;;;;;;;;2033404;29;20182;-61
2021/03/28 00:57:31;;;;;;;10.63;5.30;;;;;;;;;;2033151;29;20701;-63
2021/03/28 00:58:42;;;;;;;15.20;6.03;;;;;;;;;;2047644;29;20171;-62
2021/03/28 01:00:12;;;;;;;10.97;4.70;;;;;;;;;;2050021;28;20591;-61
2021/03/28 01:01:44;;;;;;;10.03;4.60;;;;;;;;;;2048207;28;20179;-61
2021/03/28 01:03:02;;;;;;;12.70;4.70;;;;;;;;;;2022102;28;20181;-61
2021/03/28 01:04:21;;;;;;;8.73;5.87;;;;;;;;;;2054642;28;20190;-61
2021/03/28 01:05:32;;;;;;;12.73;4.57;;;;;;;;;;2054463;28;20214;-62
2021/03/28 01:06:32;;;;;;;9.67;5.00;;;;;;;;;;2054795;28;20193;-60
2021/03/28 01:07:32;;;;;;;7.90;4.37;;;;;;;;;;2056019;28;20220;-60
2021/03/28 01:08:35;;;;;;;10.10;4.50;;;;;;;;;;2057243;28;20186;-60
2021/03/28 01:09:56;;;;;;;8.03;4.67;;;;;;;;;;2054331;28;20262;-63
2021/03/28 01:11:15;;;;;;;14.30;5.27;;;;;;;;;;2056964;28;20174;-59
2021/03/28 01:12:25;;;;;;;15.13;5.53;;;;;;;;;;2055625;28;20202;-57
2021/03/28 01:13:37;;;;;;;7.20;4.87;;;;;;;;;;2053426;28;20209;-60
2021/03/28 01:14:46;;;;;;;10.57;4.97;;;;;;;;;;2047807;28;20555;-59
2021/03/28 01:15:49;;;;;;;8.87;4.83;;;;;;;;;;2048172;28;20179;-61
2021/03/28 01:17:08;;;;;;;9.07;4.97;;;;;;;;;;2051176;28;20588;-60
2021/03/28 01:18:14;;;;;;;10.50;4.90;;;;;;;;;;2043812;28;20183;-62
2021/03/28 01:19:30;;;;;;;11.73;4.40;;;;;;;;;;2048825;28;20223;-61
2021/03/28 01:20:36;;;;;;;10.67;5.20;;;;;;;;;;2055471;28;20719;-63
2021/03/28 01:21:41;;;;;;;8.00;4.60;;;;;;;;;;2056767;28;20185;-62
2021/03/28 01:22:41;;;;;;;8.63;5.00;;;;;;;;;;2060740;23;20244;-65
2021/03/28 01:23:43;;;;;;;14.10;5.63;;;;;;;;;;2046019;28;20186;-64
2021/03/28 01:24:49;;;;;;;12.73;6.03;;;;;;;;;;2047911;28;20261;-64
2021/03/28 01:26:07;;;;;;;9.43;4.87;;;;;;;;;;2053120;28;20190;-65
2021/03/28 01:27:24;;;;;;;11.43;5.07;;;;;;;;;;2052810;28;20211;-63
2021/03/28 01:28:30;;;;;;;11.07;5.20;;;;;;;;;;2055119;28;20654;-63
2021/03/28 01:29:37;;;;;;;8.23;5.00;;;;;;;;;;2056771;28;20178;-63
2021/03/28 01:30:43;;;;;;;14.47;5.30;;;;;;;;;;2052637;28;20843;-64
2021/03/28 01:31:50;;;;;;;11.60;5.37;;;;;;;;;;2045806;29;20635;-61
2021/03/28 01:32:56;;;;;;;8.57;5.13;;;;;;;;;;2036017;29;20183;-62
2021/03/28 01:34:02;;;;;;;12.80;5.43;;;;;;;;;;2038567;29;20710;-63
2021/03/28 01:35:14;;;;;;;13.03;5.87;;;;;;;;;;2040870;29;20195;-63
2021/03/28 01:36:24;;;;;;;12.87;5.23;;;;;;;;;;2046787;29;20233;-64
2021/03/28 01:37:27;;;;;;;9.93;4.77;;;;;;;;;;2046679;28;20176;-63
2021/03/28 01:38:42;;;;;;;9.30;4.80;;;;;;;;;;2048989;29;20285;-63
2021/03/28 01:39:49;;;;;;;9.07;4.67;;;;;;;;;;2048378;29;20549;-65
2021/03/28 01:40:55;;;;;;;10.87;4.70;;;;;;;;;;2044178;28;20209;-64
2021/03/28 01:42:00;;;;;;;7.60;5.03;;;;;;;;;;2049231;28;20186;-63
2021/03/28 01:43:09;;;;;;;11.37;4.73;;;;;;;;;;2040367;29;20184;-64
2021/03/28 01:44:13;;;;;;;11.13;4.70;;;;;;;;;;2036565;29;20204;-66
2021/03/28 01:45:24;;;;;;;10.13;5.30;;;;;;;;;;2040229;29;20227;-63
2021/03/28 01:46:27;;;;;;;10.60;5.83;;;;;;;;;;2041026;29;20180;-63
2021/03/28 01:47:46;;;;;;;9.67;5.20;;;;;;;;;;2047378;28;20227;-63
2021/03/28 01:48:47;;;;;;;7.23;4.60;;;;;;;;;;2045889;28;20195;-63
2021/03/28 01:50:06;;;;;;;9.77;4.47;;;;;;;;;;2043921;28;20548;-64
2021/03/28 01:51:22;;;;;;;9.27;4.83;;;;;;;;;;2044084;28;20185;-64
2021/03/28 01:52:34;;;;;;;8.70;5.30;;;;;;;;;;2045216;28;20261;-65
2021/03/28 01:53:37;;;;;;;11.37;4.97;;;;;;;;;;2047359;29;20550;-64
2021/03/28 01:54:37;;;;;;;6.27;5.10;;;;;;;;;;2048847;28;20199;-62
2021/03/28 01:55:50;;;;;;;9.73;5.10;;;;;;;;;;2039136;29;20184;-63
2021/03/28 01:57:02;;;;;;;10.03;4.93;;;;;;;;;;2038095;29;20180;-64
2021/03/28 01:58:09;;;;;;;11.60;5.50;;;;;;;;;;2048403;28;20198;-58
2021/03/28 01:59:20;;;;;;;7.73;4.83;;;;;;;;;;2050130;28;20190;-60
2021/03/28 02:00:30;;;;;;;9.07;5.20;;;;;;;;;;2048032;29;20183;-62
2021/03/28 02:01:39;;;;;;;11.50;5.33;;;;;;;;;;2047656;28;20285;-64
2021/03/28 02:02:42;;;;;;;10.53;5.53;;;;;;;;;;2047128;28;20263;-60
2021/03/28 02:03:45;;;;;;;7.97;4.23;;;;;;;;;;2048614;29;20179;-63
2021/03/28 02:04:51;;;;;;;7.80;4.60;;;;;;;;;;2049433;28;20311;-64
2021/03/28 02:05:51;;;;;;;10.23;5.57;;;;;;;;;;2049014;28;20334;-64
2021/03/28 02:07:09;;;;;;;9.93;5.27;;;;;;;;;;2049652;29;20647;-59
2021/03/28 02:08:09;;;;;;;10.10;4.67;;;;;;;;;;2047065;28;20178;-64
2021/03/28 02:09:15;;;;;;;7.87;4.47;;;;;;;;;;2040580;29;20195;-62
2021/03/28 02:10:16;;;;;;;10.40;4.70;;;;;;;;;;2041454;29;20227;-64
2021/03/28 02:11:16;;;;;;;10.03;4.87;;;;;;;;;;2047192;28;20611;-65
2021/03/28 02:12:21;;;;;;;8.50;4.83;;;;;;;;;;2041398;29;20207;-66
2021/03/28 02:13:21;;;;;;;8.00;3.97;;;;;;;;;;2040836;29;20180;-62
2021/03/28 02:14:36;;;;;;;7.90;5.00;;;;;;;;;;2047655;28;20213;-62
2021/03/28 02:15:48;;;;;;;7.57;4.40;;;;;;;;;;2049665;29;20185;-61
2021/03/28 02:17:02;;;;;;;10.37;4.30;;;;;;;;;;2048245;28;20247;-62
2021/03/28 02:18:08;;;;;;;7.47;4.63;;;;;;;;;;2044523;28;20189;-64
2021/03/28 02:19:13;;;;;;;12.40;5.33;;;;;;;;;;2046312;29;20253;-61
2021/03/28 02:20:25;;;;;;;8.40;4.20;;;;;;;;;;2047996;28;20175;-64
2021/03/28 02:21:44;;;;;;;5.53;4.27;;;;;;;;;;2046872;29;20187;-63
2021/03/28 02:22:50;;;;;;;11.30;5.10;;;;;;;;;;2049692;28;20239;-63
2021/03/28 02:24:08;;;;;;;10.07;4.63;;;;;;;;;;2048353;28;20179;-63
2021/03/28 02:25:24;;;;;;;11.67;5.00;;;;;;;;;;2049839;28;20190;-64
2021/03/28 02:26:32;;;;;;;7.97;4.53;;;;;;;;;;2048673;29;20182;-64
2021/03/28 02:27:41;;;;;;;8.43;4.73;;;;;;;;;;2049230;28;20192;-63
2021/03/28 02:28:53;;;;;;;10.63;4.90;;;;;;;;;;2045660;28;20183;-63
2021/03/28 02:29:59;;;;;;;9.03;4.60;;;;;;;;;;2041487;29;20590;-63
2021/03/28 02:31:10;;;;;;;5.87;5.27;;;;;;;;;;2040096;29;20184;-64
2021/03/28 02:32:16;;;;;;;13.80;5.00;;;;;;;;;;2046679;28;20221;-61
2021/03/28 02:33:20;;;;;;;10.70;5.20;;;;;;;;;;2039451;29;20291;-63
2021/03/28 02:34:26;;;;;;;9.23;4.70;;;;;;;;;;2041729;29;20209;-63
2021/03/28 02:35:40;;;;;;;8.57;4.47;;;;;;;;;;2039806;29;20659;-63
2021/03/28 02:36:43;;;;;;;13.07;5.47;;;;;;;;;;2034997;29;20180;-61
2021/03/28 02:37:43;;;;;;;8.63;4.87;;;;;;;;;;2039817;29;20191;-64
2021/03/28 02:38:43;;;;;;;11.40;4.80;;;;;;;;;;2049040;28;20206;-63
2021/03/28 02:39:49;;;;;;;13.93;5.37;;;;;;;;;;2048339;29;20179;-62
2021/03/28 02:41:01;;;;;;;12.87;4.93;;;;;;;;;;2044404;28;20187;-67
2021/03/28 02:42:02;;;;;;;10.57;4.20;;;;;;;;;;2048880;28;20623;-63
2021/03/28 02:43:21;;;;;;;10.13;5.53;;;;;;;;;;2047850;29;20191;-62
2021/03/28 02:44:24;;;;;;;9.67;4.73;;;;;;;;;;2045501;28;20234;-60
2021/03/28 02:45:26;;;;;;;11.03;4.33;;;;;;;;;;2047655;28;20230;-62
2021/03/28 02:46:40;;;;;;;9.10;4.73;;;;;;;;;;2050114;29;20270;-63
2021/03/28 02:47:41;;;;;;;11.57;5.30;;;;;;;;;;2048220;28;20245;-64
2021/03/28 02:48:46;;;;;;;8.20;5.20;;;;;;;;;;2050124;29;20214;-61
2021/03/28 02:50:05;;;;;;;11.33;5.60;;;;;;;;;;2041164;29;20207;-61
2021/03/28 02:51:09;;;;;;;13.03;5.07;;;;;;;;;;2042801;29;20179;-62
2021/03/28 02:52:24;;;;;;;6.83;5.23;;;;;;;;;;2048691;28;20198;-63
2021/03/28 02:53:27;;;;;;;8.77;5.20;;;;;;;;;;2043665;29;20211;-62
2021/03/28 02:54:54;;;;;;;7.97;4.80;;;;;;;;;;2048068;28;20183;-63
2021/03/28 02:56:00;;;;;;;5.93;4.97;;;;;;;;;;2043334;28;20223;-62
2021/03/28 02:57:03;;;;;;;6.83;5.63;;;;;;;;;;2046872;29;20632;-62
2021/03/28 02:58:22;;;;;;;9.77;4.77;;;;;;;;;;2046689;28;20190;-63
2021/03/28 02:59:22;;;;;;;8.70;4.90;;;;;;;;;;2044404;28;20198;-63
2021/03/28 03:00:46;;;;;;;10.13;5.93;;;;;;;;;;2048756;29;20261;-62
2021/03/28 03:02:03;;;;;;;14.20;5.80;;;;;;;;;;2038673;29;20255;-62
2021/03/28 03:03:14;;;;;;;15.43;5.30;;;;;;;;;;2040868;29;20178;-64
2021/03/28 03:04:18;;;;;;;7.73;4.87;;;;;;;;;;2040961;29;20211;-61
2021/03/28 03:05:18;;;;;;;8.37;5.20;;;;;;;;;;2047181;29;20167;-64
2021/03/28 03:06:21;;;;;;;9.57;5.40;;;;;;;;;;2040649;29;20195;-61
2021/03/28 03:07:28;;;;;;;10.20;5.17;;;;;;;;;;2041017;29;20176;-62
2021/03/28 03:08:32;;;;;;;11.20;5.23;;;;;;;;;;2049038;28;20635;-63
2021/03/28 03:09:48;;;;;;;13.20;5.57;;;;;;;;;;2048425;29;20202;-58
2021/03/28 03:11:05;;;;;;;11.13;4.53;;;;;;;;;;2046197;28;20270;-63
2021/03/28 03:12:05;;;;;;;7.33;5.17;;;;;;;;;;2048901;29;20218;-61
2021/03/28 03:13:27;;;;;;;13.37;5.43;;;;;;;;;;2049657;29;20198;-62
2021/03/28 03:14:27;;;;;;;10.57;5.20;;;;;;;;;;2041163;29;20179;-62
2021/03/28 03:15:30;;;;;;;10.73;5.73;;;;;;;;;;2041233;29;20239;-62
2021/03/28 03:16:39;;;;;;;9.43;5.83;;;;;;;;;;2049853;29;20167;-62
2021/03/28 03:17:58;;;;;;;6.57;5.20;;;;;;;;;;2049866;29;20186;-62
2021/03/28 03:19:16;;;;;;;11.10;5.77;;;;;;;;;;2049718;29;20659;-63
2021/03/28 03:20:17;;;;;;;8.03;5.27;;;;;;;;;;2041979;29;20194;-62
2021/03/28 03:21:35;;;;;;;8.77;4.77;;;;;;;;;;2041010;29;20662;-63
2021/03/28 03:22:51;;;;;;;12.03;5.17;;;;;;;;;;2041910;29;20293;-63
2021/03/28 03:24:07;;;;;;;12.30;6.07;;;;;;;;;;2049228;29;20173;-63
2021/03/28 03:25:16;;;;;;;9.20;5.70;;;;;;;;;;2040940;29;20156;-62
2021/03/28 03:26:35;;;;;;;7.13;5.63;;;;;;;;;;2042301;29;20207;-63
2021/03/28 03:27:44;;;;;;;11.73;5.47;;;;;;;;;;2040387;29;20559;-63
2021/03/28 03:28:44;;;;;;;11.90;5.13;;;;;;;;;;2034867;29;20193;-62
2021/03/28 03:30:03;;;;;;;12.17;5.83;;;;;;;;;;2049542;29;20182;-62
2021/03/28 03:31:08;;;;;;;13.13;5.53;;;;;;;;;;2050018;29;20233;-63
2021/03/28 03:32:08;;;;;;;9.50;5.50;;;;;;;;;;2041971;29;20184;-62
2021/03/28 03:33:14;;;;;;;10.97;6.10;;;;;;;;;;2041950;29;20171;-63
2021/03/28 03:34:20;;;;;;;10.10;5.83;;;;;;;;;;2050464;29;20191;-63
2021/03/28 03:35:31;;;;;;;11.77;6.43;;;;;;;;;;2050073;29;20194;-63
2021/03/28 03:36:31;;;;;;;10.17;5.27;;;;;;;;;;2050622;29;20266;-62
2021/03/28 03:37:46;;;;;;;11.23;6.10;;;;;;;;;;2050444;29;20665;-63
2021/03/28 03:39:05;;;;;;;11.50;5.23;;;;;;;;;;2050766;29;20197;-62
2021/03/28 03:40:17;;;;;;;11.90;5.63;;;;;;;;;;2044286;29;20187;-64
2021/03/28 03:41:25;;;;;;;8.10;5.47;;;;;;;;;;2050779;29;20186;-63
2021/03/28 03:42:39;;;;;;;14.03;5.70;;;;;;;;;;2050562;28;20198;-63
2021/03/28 03:43:39;;;;;;;12.20;5.87;;;;;;;;;;2049872;29;20182;-64
2021/03/28 03:44:59;;;;;;;9.20;5.83;;;;;;;;;;2051513;29;20218;-64
2021/03/28 03:46:01;;;;;;;12.53;5.70;;;;;;;;;;2046409;29;20738;-64
2021/03/28 03:47:02;;;;;;;14.30;5.73;;;;;;;;;;2044840;29;20239;-61
2021/03/28 03:48:11;;;;;;;13.30;6.10;;;;;;;;;;2035596;29;20172;-61
2021/03/28 03:49:24;;;;;;;13.50;6.63;;;;;;;;;;2041661;29;20184;-60
2021/03/28 03:50:41;;;;;;;9.87;6.03;;;;;;;;;;2040959;29;20176;-62
2021/03/28 03:51:57;;;;;;;11.70;6.07;;;;;;;;;;2041358;29;20164;-61
2021/03/28 03:53:12;;;;;;;9.03;5.57;;;;;;;;;;2041767;29;20180;-64
2021/03/28 03:54:31;;;;;;;14.07;5.97;;;;;;;;;;2045861;29;20520;-60
2021/03/28 03:55:37;;;;;;;12.50;5.73;;;;;;;;;;2049615;29;20182;-61
2021/03/28 03:56:56;;;;;;;12.07;5.73;;;;;;;;;;2049233;29;20166;-60
2021/03/28 03:58:15;;;;;;;10.93;6.43;;;;;;;;;;2041188;29;20675;-61
2021/03/28 03:59:39;;;;;;;10.53;6.03;;;;;;;;;;2043691;29;20187;-59
2021/03/28 04:00:51;;;;;;;9.77;5.43;;;;;;;;;;2032717;29;20212;-63
2021/03/28 04:02:10;;;;;;;9.70;5.77;;;;;;;;;;2049257;28;20178;-59
2021/03/28 04:03:13;;;;;;;8.00;5.27;;;;;;;;;;2048926;29;20179;-61
2021/03/28 04:04:19;;;;;;;11.67;6.33;;;;;;;;;;2049542;29;20199;-63
2021/03/28 04:05:35;;;;;;;11.00;6.47;;;;;;;;;;2049345;29;20585;-60
2021/03/28 04:06:50;;;;;;;9.63;6.07;;;;;;;;;;2049194;29;20825;-59
2021/03/28 04:07:59;;;;;;;11.87;6.00;;;;;;;;;;2049605;29;20159;-60
2021/03/28 04:09:12;;;;;;;10.37;6.10;;;;;;;;;;2049118;29;20189;-60
2021/03/28 04:10:17;;;;;;;12.73;5.83;;;;;;;;;;2041158;29;20164;-62
2021/03/28 04:11:25;;;;;;;11.67;6.30;;;;;;;;;;2041492;29;20172;-60
2021/03/28 04:12:34;;;;;;;13.57;6.30;;;;;;;;;;2049488;28;20268;-60
2021/03/28 04:13:46;;;;;;;13.43;5.57;;;;;;;;;;2048901;29;20182;-61
2021/03/28 04:14:56;;;;;;;13.03;6.33;;;;;;;;;;2049449;29;20555;-61
2021/03/28 04:16:14;;;;;;;12.03;5.73;;;;;;;;;;2049165;29;20562;-59
2021/03/28 04:17:27;;;;;;;11.60;5.97;;;;;;;;;;2049240;29;20186;-59
2021/03/28 04:18:30;;;;;;;10.00;5.90;;;;;;;;;;2049193;29;20187;-60
2021/03/28 04:19:42;;;;;;;8.87;5.57;;;;;;;;;;2049232;28;20637;-62
2021/03/28 04:20:45;;;;;;;13.07;6.53;;;;;;;;;;2039834;29;20218;-63
2021/03/28 04:22:04;;;;;;;12.07;5.93;;;;;;;;;;2040972;29;20592;-61
2021/03/28 04:23:22;;;;;;;18.17;7.23;;;;;;;;;;2049367;29;20182;-62
2021/03/28 04:24:42;;;;;;;11.13;5.63;;;;;;;;;;2049251;29;20207;-64
2021/03/28 04:25:45;;;;;;;9.67;5.50;;;;;;;;;;2040385;29;20680;-64
2021/03/28 04:26:54;;;;;;;8.57;5.87;;;;;;;;;;2041134;29;20184;-62
2021/03/28 04:28:13;;;;;;;14.37;6.23;;;;;;;;;;2048665;29;20175;-64
2021/03/28 04:29:14;;;;;;;13.23;6.30;;;;;;;;;;2041424;29;20190;-64
2021/03/28 04:30:33;;;;;;;13.10;6.23;;;;;;;;;;2041316;29;20793;-62
2021/03/28 04:31:51;;;;;;;11.77;6.03;;;;;;;;;;2041017;29;20539;-64
2021/03/28 04:33:04;;;;;;;8.50;6.00;;;;;;;;;;2044832;29;20174;-64
2021/03/28 04:34:09;;;;;;;10.70;5.83;;;;;;;;;;2048748;29;20155;-60
2021/03/28 04:35:24;;;;;;;10.97;5.93;;;;;;;;;;2049145;29;20167;-63
2021/03/28 04:36:39;;;;;;;12.67;5.90;;;;;;;;;;2049223;29;20249;-63
2021/03/28 04:37:51;;;;;;;13.33;6.33;;;;;;;;;;2049001;29;20594;-63
2021/03/28 04:39:00;;;;;;;16.93;6.73;;;;;;;;;;2049107;29;20171;-63
2021/03/28 04:40:16;;;;;;;10.03;5.80;;;;;;;;;;2049154;29;20179;-63
2021/03/28 04:41:36;;;;;;;12.07;5.67;;;;;;;;;;2048976;29;20178;-62
2021/03/28 04:42:49;;;;;;;9.90;5.93;;;;;;;;;;2041275;29;20270;-62
2021/03/28 04:44:08;;;;;;;12.63;6.17;;;;;;;;;;2032679;29;20168;-64
2021/03/28 04:45:25;;;;;;;11.87;6.17;;;;;;;;;;2041387;29;20191;-64
2021/03/28 04:46:41;;;;;;;9.87;5.90;;;;;;;;;;2047882;29;20179;-62
2021/03/28 04:47:59;;;;;;;12.27;6.17;;;;;;;;;;2048794;29;20183;-65
2021/03/28 04:49:22;;;;;;;14.57;7.10;;;;;;;;;;2048728;29;20182;-64
2021/03/28 04:50:41;;;;;;;13.37;6.60;;;;;;;;;;2040203;29;20586;-62
2021/03/28 04:51:49;;;;;;;9.60;5.43;;;;;;;;;;2040838;29;20175;-63
2021/03/28 04:53:08;;;;;;;9.40;5.30;;;;;;;;;;2048986;29;20283;-63
2021/03/28 04:54:27;;;;;;;8.97;5.83;;;;;;;;;;2045024;29;20194;-64
2021/03/28 04:55:33;;;;;;;12.90;6.43;;;;;;;;;;2049200;29;20178;-64
2021/03/28 04:56:33;;;;;;;8.47;6.33;;;;;;;;;;2040256;29;20202;-64
2021/03/28 04:57:41;;;;;;;11.87;5.50;;;;;;;;;;2040647;29;20199;-62
2021/03/28 04:59:09;;;;;;;9.00;5.50;;;;;;;;;;2040207;29;20187;-64
2021/03/28 05:00:28;;;;;;;7.80;5.30;;;;;;;;;;2044054;29;20650;-64
2021/03/28 05:01:37;;;;;;;14.17;6.03;;;;;;;;;;2048700;29;20225;-64
2021/03/28 05:02:56;;;;;;;11.20;6.27;;;;;;;;;;2049012;28;20187;-64
2021/03/28 05:04:04;;;;;;;9.33;5.73;;;;;;;;;;2048613;29;20214;-65
2021/03/28 05:05:17;;;;;;;8.97;5.47;;;;;;;;;;2048809;29;20171;-66
2021/03/28 05:06:17;;;;;;;10.87;5.63;;;;;;;;;;2045685;29;20263;-63
2021/03/28 05:07:26;;;;;;;8.90;5.90;;;;;;;;;;2044934;29;20174;-62
2021/03/28 05:08:32;;;;;;;9.53;6.10;;;;;;;;;;2045752;29;20178;-63
2021/03/28 05:09:41;;;;;;;9.43;6.23;;;;;;;;;;2040056;29;20407;-64
2021/03/28 05:10:52;;;;;;;12.10;6.40;;;;;;;;;;2040657;29;20735;-64
2021/03/28 05:12:12;;;;;;;7.80;6.10;;;;;;;;;;2032908;29;20196;-64
2021/03/28 05:13:27;;;;;;;11.87;6.17;;;;;;;;;;2042390;29;20343;-63
2021/03/28 05:14:52;;;;;;;11.57;6.27;;;;;;;;;;2049171;29;20171;-63
2021/03/28 05:15:58;;;;;;;8.63;5.60;;;;;;;;;;2048868;29;20182;-63
2021/03/28 05:16:58;;;;;;;8.83;6.20;;;;;;;;;;2048954;29;20694;-64
2021/03/28 05:18:17;;;;;;;11.37;6.10;;;;;;;;;;2048509;29;20183;-64
2021/03/28 05:19:17;;;;;;;14.27;5.67;;;;;;;;;;2048876;29;20206;-64
2021/03/28 05:20:36;;;;;;;8.87;5.30;;;;;;;;;;2048862;29;20695;-64
2021/03/28 05:21:55;;;;;;;9.53;5.47;;;;;;;;;;2040960;29;20206;-61
2021/03/28 05:23:04;;;;;;;12.80;6.07;;;;;;;;;;2040875;29;20206;-62
2021/03/28 05:24:23;;;;;;;14.70;5.57;;;;;;;;;;2046968;29;20205;-63
2021/03/28 05:25:33;;;;;;;12.33;5.87;;;;;;;;;;2040462;29;20192;-64
2021/03/28 05:26:46;;;;;;;9.90;6.07;;;;;;;;;;2041647;29;20179;-63
2021/03/28 05:27:46;;;;;;;10.10;5.00;;;;;;;;;;2048950;29;20179;-62
2021/03/28 05:28:49;;;;;;;13.67;5.90;;;;;;;;;;2048545;29;20262;-63
2021/03/28 05:29:52;;;;;;;12.00;6.13;;;;;;;;;;2048979;29;20518;-60
2021/03/28 05:31:02;;;;;;;13.07;6.00;;;;;;;;;;2048748;29;20171;-62
2021/03/28 05:32:21;;;;;;;9.77;5.67;;;;;;;;;;2049243;28;20175;-62
2021/03/28 05:33:24;;;;;;;8.93;5.33;;;;;;;;;;2033598;29;20216;-64
2021/03/28 05:34:56;;;;;;;13.63;5.60;;;;;;;;;;2027632;29;20303;-64
2021/03/28 05:36:15;;;;;;;9.23;5.87;;;;;;;;;;2023203;29;20193;-62
2021/03/28 05:37:15;;;;;;;11.67;5.40;;;;;;;;;;2041634;29;20665;-64
2021/03/28 05:38:21;;;;;;;11.33;5.53;;;;;;;;;;2042057;29;20207;-62
2021/03/28 05:39:22;;;;;;;9.00;5.90;;;;;;;;;;2050626;29;20171;-63
2021/03/28 05:40:35;;;;;;;18.43;6.43;;;;;;;;;;2050344;29;20174;-63
2021/03/28 05:42:14;;;;;;;10.20;5.60;;;;;;;;;;2050542;29;20191;-63
2021/03/28 05:43:33;;;;;;;11.30;5.17;;;;;;;;;;2033310;29;20188;-63
2021/03/28 05:44:50;;;;;;;12.60;6.03;;;;;;;;;;2033618;29;20348;-64
2021/03/28 05:45:51;;;;;;;13.03;6.30;;;;;;;;;;2033660;29;20196;-61
2021/03/28 05:46:57;;;;;;;8.33;5.10;;;;;;;;;;2033802;29;20321;-63
2021/03/28 05:47:57;;;;;;;14.33;6.23;;;;;;;;;;2033360;29;20204;-64
2021/03/28 05:48:57;;;;;;;12.97;5.80;;;;;;;;;;2042937;29;20191;-64
2021/03/28 05:50:02;;;;;;;13.07;5.83;;;;;;;;;;2034048;29;20184;-64
2021/03/28 05:51:20;;;;;;;8.77;5.83;;;;;;;;;;2027158;29;20858;-63
2021/03/28 05:52:27;;;;;;;9.97;5.97;;;;;;;;;;2044403;29;20255;-62
2021/03/28 05:53:46;;;;;;;12.87;5.67;;;;;;;;;;2049884;29;20170;-62
2021/03/28 05:54:55;;;;;;;11.83;5.70;;;;;;;;;;2050550;29;20182;-62
2021/03/28 05:56:21;;;;;;;8.83;5.47;;;;;;;;;;2050429;29;20186;-62
2021/03/28 05:57:40;;;;;;;10.93;5.70;;;;;;;;;;2050230;29;20210;-62
2021/03/28 05:58:59;;;;;;;10.40;6.07;;;;;;;;;;2050215;29;20639;-62
2021/03/28 06:00:05;;;;;;;13.07;5.40;;;;;;;;;;2041564;29;20176;-63
2021/03/28 06:01:19;;;;;;;9.77;5.60;;;;;;;;;;2042755;29;20259;-64
2021/03/28 06:02:54;;;;;;;16.53;5.97;;;;;;;;;;2050413;28;20626;-63
2021/03/28 06:03:55;;;;;;;13.27;6.30;;;;;;;;;;2017668;29;20291;-63
2021/03/28 06:05:33;;;;;;;11.10;5.50;;;;;;;;;;2018095;29;20306;-63
2021/03/28 06:06:34;;;;;;;11.17;5.63;;;;;;;;;;2028907;29;20710;-63
2021/03/28 06:07:34;;;;;;;11.53;5.80;;;;;;;;;;2039023;29;20179;-64
2021/03/28 06:08:34;;;;;;;12.70;5.87;;;;;;;;;;2033503;29;20324;-64
2021/03/28 06:09:53;;;;;;;12.87;5.53;;;;;;;;;;2033152;29;20196;-63
2021/03/28 06:10:53;;;;;;;8.33;5.17;;;;;;;;;;2041423;29;20191;-65
2021/03/28 06:11:54;;;;;;;13.50;5.70;;;;;;;;;;2041235;29;20167;-64
2021/03/28 06:13:13;;;;;;;11.43;5.67;;;;;;;;;;2042316;29;20735;-62
2021/03/28 06:14:19;;;;;;;9.20;5.10;;;;;;;;;;2045413;29;20198;-64
2021/03/28 06:15:37;;;;;;;12.43;5.93;;;;;;;;;;2050058;29;20225;-64
2021/03/28 06:16:56;;;;;;;8.20;4.40;;;;;;;;;;2044351;29;20183;-64
2021/03/28 06:18:06;;;;;;;12.37;5.40;;;;;;;;;;2041485;29;20265;-64
2021/03/28 06:19:06;;;;;;;10.20;5.07;;;;;;;;;;2039157;29;20211;-63
2021/03/28 06:20:25;;;;;;;10.33;5.80;;;;;;;;;;2049830;28;20210;-64
2021/03/28 06:21:43;;;;;;;10.60;4.83;;;;;;;;;;2050216;29;20185;-63
2021/03/28 06:23:02;;;;;;;8.27;5.33;;;;;;;;;;2049934;28;20234;-64
2021/03/28 06:24:10;;;;;;;10.63;5.30;;;;;;;;;;2043264;29;20172;-64
2021/03/28 06:25:29;;;;;;;8.67;5.10;;;;;;;;;;2050247;29;20178;-63
2021/03/28 06:26:32;;;;;;;7.47;5.10;;;;;;;;;;2049877;29;20214;-64
2021/03/28 06:27:32;;;;;;;8.70;5.10;;;;;;;;;;2050199;29;20562;-64
2021/03/28 06:28:44;;;;;;;9.27;5.00;;;;;;;;;;2050190;29;20183;-63
2021/03/28 06:30:02;;;;;;;14.07;5.17;;;;;;;;;;2050161;29;20163;-65
2021/03/28 06:31:14;;;;;;;12.00;5.23;;;;;;;;;;2050108;29;20163;-63
2021/03/28 06:32:23;;;;;;;9.60;5.73;;;;;;;;;;2050169;28;20207;-65
2021/03/28 06:33:26;;;;;;;12.03;5.17;;;;;;;;;;2049518;29;20162;-63
2021/03/28 06:34:40;;;;;;;10.10;5.00;;;;;;;;;;2049835;29;20183;-65
2021/03/28 06:35:40;;;;;;;11.40;5.03;;;;;;;;;;2050350;29;20174;-63
2021/03/28 06:36:46;;;;;;;10.13;5.60;;;;;;;;;;2049772;29;20563;-64
2021/03/28 06:37:53;;;;;;;9.27;5.10;;;;;;;;;;2050281;29;20578;-63
2021/03/28 06:38:53;;;;;;;8.50;5.13;;;;;;;;;;2050167;29;20186;-61
2021/03/28 06:40:01;;;;;;;11.40;5.23;;;;;;;;;;2050416;29;20614;-64
2021/03/28 06:41:19;;;;;;;14.13;5.87;;;;;;;;;;2049884;29;20175;-63
2021/03/28 06:42:25;;;;;;;9.07;5.27;;;;;;;;;;2050103;28;20191;-63
2021/03/28 06:43:40;;;;;;;11.30;4.97;;;;;;;;;;2049104;28;20361;-63
2021/03/28 06:44:53;;;;;;;8.07;5.30;;;;;;;;;;2050242;29;20758;-63
2021/03/28 06:45:53;;;;;;;8.67;4.87;;;;;;;;;;2050183;29;20214;-62
2021/03/28 06:47:08;;;;;;;10.63;5.10;;;;;;;;;;2051185;29;20589;-65
2021/03/28 06:48:09;;;;;;;12.40;5.03;;;;;;;;;;2050689;29;20523;-64
2021/03/28 06:49:27;;;;;;;9.47;5.27;;;;;;;;;;2042645;29;20171;-62
2021/03/28 06:50:37;;;;;;;10.00;4.53;;;;;;;;;;2044016;29;20295;-63
2021/03/28 06:51:51;;;;;;;10.33;5.27;;;;;;;;;;2041739;29;20208;-60
2021/03/28 06:53:17;;;;;;;11.02;5.32;;;;;;;;;;2035660;29;20190;-60
2021/03/28 06:54:20;;;;;;;9.38;4.93;;;;;;;;;;2043772;29;20197;-59
2021/03/28 06:55:33;;;;;;;8.73;5.17;;;;;;;;;;2047282;29;20179;-63
2021/03/28 06:56:36;;;;;;;10.67;4.83;;;;;;;;;;2047804;29;20167;-66